createdAt,value
2023-03-12T00:00:00.923Z,99590
2023-03-12T00:01:00.516Z,99590
2023-03-12T00:02:00.661Z,99580
2023-03-12T00:03:00.682Z,99580
2023-03-12T00:04:01.233Z,99580
2023-03-12T00:05:00.593Z,99580
2023-03-12T00:06:10.290Z,99580
2023-03-12T00:07:01.227Z,99580
2023-03-12T00:08:00.513Z,99570
2023-03-12T00:09:00.520Z,99580
2023-03-12T00:10:00.603Z,99570
2023-03-12T00:11:06.863Z,99570
2023-03-12T00:12:00.551Z,99570
2023-03-12T00:13:00.752Z,99570
2023-03-12T00:14:00.606Z,99570
2023-03-12T00:15:00.588Z,99570
2023-03-12T00:16:03.628Z,99570
2023-03-12T00:17:00.581Z,99580
2023-03-12T00:18:00.530Z,99570
2023-03-12T00:19:00.555Z,99570
2023-03-12T00:20:01.006Z,99570
2023-03-12T00:21:00.584Z,99570
2023-03-12T00:22:00.537Z,99570
2023-03-12T00:23:00.617Z,99570
2023-03-12T00:24:00.542Z,99570
2023-03-12T00:25:01.211Z,99570
2023-03-12T00:26:02.008Z,99570
2023-03-12T00:27:00.651Z,99570
2023-03-12T00:28:00.529Z,99570
2023-03-12T00:29:00.658Z,99570
2023-03-12T00:30:00.617Z,99570
2023-03-12T00:31:01.431Z,99580
2023-03-12T00:32:00.583Z,99570
2023-03-12T00:33:00.554Z,99570
2023-03-12T00:34:01.565Z,99580
2023-03-12T00:35:01.804Z,99580
2023-03-12T00:36:00.626Z,99570
2023-03-12T00:37:00.546Z,99570
2023-03-12T00:38:00.548Z,99580
2023-03-12T00:39:00.837Z,99570
2023-03-12T00:40:01.193Z,99570
2023-03-12T00:41:00.605Z,99570
2023-03-12T00:42:00.652Z,99570
2023-03-12T00:43:00.604Z,99570
2023-03-12T00:44:00.888Z,99570
2023-03-12T00:45:00.555Z,99570
2023-03-12T00:46:00.584Z,99570
2023-03-12T00:47:00.622Z,99570
2023-03-12T00:48:00.533Z,99570
2023-03-12T00:49:00.577Z,99570
2023-03-12T00:50:00.557Z,99570
2023-03-12T00:51:00.723Z,99570
2023-03-12T00:52:00.589Z,99570
2023-03-12T00:53:00.699Z,99570
2023-03-12T00:54:00.546Z,99570
2023-03-12T00:55:00.518Z,99570
2023-03-12T00:56:01.222Z,99560
2023-03-12T00:57:00.550Z,99570
2023-03-12T00:58:00.558Z,99570
2023-03-12T00:59:00.695Z,99570
2023-03-12T01:00:00.575Z,99570
2023-03-12T01:01:00.666Z,99570
2023-03-12T01:02:00.559Z,99570
2023-03-12T01:03:00.675Z,99570
2023-03-12T01:04:00.592Z,99570
2023-03-12T01:05:00.738Z,99570
2023-03-12T01:06:00.543Z,99570
2023-03-12T01:07:00.545Z,99570
2023-03-12T01:08:00.560Z,99570
2023-03-12T01:09:01.153Z,99570
2023-03-12T01:10:00.644Z,99570
2023-03-12T01:11:00.562Z,99570
2023-03-12T01:12:00.634Z,99570
2023-03-12T01:13:00.600Z,99580
2023-03-12T01:14:01.708Z,99570
2023-03-12T01:15:00.889Z,99570
2023-03-12T01:16:00.588Z,99570
2023-03-12T01:17:00.592Z,99580
2023-03-12T01:18:00.546Z,99580
2023-03-12T01:19:02.481Z,99570
2023-03-12T01:20:00.614Z,99570
2023-03-12T01:21:00.906Z,99570
2023-03-12T01:22:00.575Z,99580
2023-03-12T01:23:00.624Z,99570
2023-03-12T01:24:00.649Z,99570
2023-03-12T01:25:00.776Z,99570
2023-03-12T01:26:00.533Z,99580
2023-03-12T01:27:00.562Z,99570
2023-03-12T01:28:00.568Z,99570
2023-03-12T01:29:00.562Z,99570
2023-03-12T01:30:00.728Z,99570
2023-03-12T01:31:05.611Z,99570
2023-03-12T01:32:00.547Z,99570
2023-03-12T01:33:00.611Z,99570
2023-03-12T01:34:00.533Z,99570
2023-03-12T01:35:00.615Z,99570
2023-03-12T01:36:00.889Z,99560
2023-03-12T01:37:00.790Z,99560
2023-03-12T01:38:00.525Z,99560
2023-03-12T01:39:00.670Z,99560
2023-03-12T01:40:00.885Z,99560
2023-03-12T01:41:00.529Z,99560
2023-03-12T01:42:00.587Z,99560
2023-03-12T01:43:20.464Z,99560
2023-03-12T01:44:02.190Z,99560
2023-03-12T01:45:04.194Z,99560
2023-03-12T01:46:14.185Z,99560
2023-03-12T01:47:00.539Z,99560
2023-03-12T01:48:00.506Z,99560
2023-03-12T01:49:11.747Z,99560
2023-03-12T01:50:01.106Z,99560
2023-03-12T01:51:01.613Z,99560
2023-03-12T01:52:06.020Z,99560
2023-03-12T01:53:00.666Z,99560
2023-03-12T01:54:05.345Z,99560
2023-03-12T01:55:07.789Z,99560
2023-03-12T01:56:02.232Z,99560
2023-03-12T01:57:04.077Z,99570
2023-03-12T01:58:01.032Z,99570
2023-03-12T01:59:08.583Z,99570
2023-03-12T02:00:07.525Z,99570
2023-03-12T02:01:00.818Z,99570
2023-03-12T02:02:01.812Z,99570
2023-03-12T02:03:05.363Z,99570
2023-03-12T02:04:01.115Z,99570
2023-03-12T02:05:06.763Z,99570
2023-03-12T02:06:06.830Z,99570
2023-03-12T02:07:06.102Z,99570
2023-03-12T02:08:00.564Z,99570
2023-03-12T02:09:03.650Z,99570
2023-03-12T02:10:01.131Z,99570
2023-03-12T02:11:00.588Z,99570
2023-03-12T02:12:00.939Z,99580
2023-03-12T02:13:00.643Z,99570
2023-03-12T02:14:01.114Z,99570
2023-03-12T02:15:00.837Z,99570
2023-03-12T02:16:01.064Z,99570
2023-03-12T02:17:00.558Z,99580
2023-03-12T02:18:06.133Z,99580
2023-03-12T02:19:03.658Z,99580
2023-03-12T02:20:20.437Z,99580
2023-03-12T02:21:16.876Z,99570
2023-03-12T02:22:01.072Z,99570
2023-03-12T02:23:07.640Z,99580
2023-03-12T02:24:01.520Z,99580
2023-03-12T02:25:15.349Z,99580
2023-03-12T02:26:03.117Z,99580
2023-03-12T02:27:01.349Z,99580
2023-03-12T02:28:03.973Z,99580
2023-03-12T02:29:00.716Z,99580
2023-03-12T02:30:02.602Z,99580
2023-03-12T02:31:02.690Z,99580
2023-03-12T02:32:02.692Z,99590
2023-03-12T02:33:05.084Z,99580
2023-03-12T02:34:02.100Z,99590
2023-03-12T02:35:00.925Z,99590
2023-03-12T02:36:00.616Z,99590
2023-03-12T02:37:01.109Z,99590
2023-03-12T02:38:01.306Z,99590
2023-03-12T02:39:00.549Z,99590
2023-03-12T02:40:14.329Z,99590
2023-03-12T02:41:09.619Z,99590
2023-03-12T02:42:00.549Z,99590
2023-03-12T02:43:04.809Z,99590
2023-03-12T02:44:06.305Z,99590
2023-03-12T02:45:01.952Z,99590
2023-03-12T02:46:00.659Z,99600
2023-03-12T02:47:00.846Z,99600
2023-03-12T02:48:01.555Z,99590
2023-03-12T02:49:01.498Z,99590
2023-03-12T02:50:00.554Z,99590
2023-03-12T02:51:00.579Z,99590
2023-03-12T02:52:01.294Z,99590
2023-03-12T02:53:00.656Z,99590
2023-03-12T02:54:00.519Z,99590
2023-03-12T02:55:01.295Z,99600
2023-03-12T02:56:01.272Z,99590
2023-03-12T02:57:00.589Z,99590
2023-03-12T02:58:00.558Z,99590
2023-03-12T02:59:03.296Z,99590
2023-03-12T03:00:00.574Z,99590
2023-03-12T03:01:00.659Z,99590
2023-03-12T03:02:00.837Z,99590
2023-03-12T03:03:00.747Z,99590
2023-03-12T03:04:02.423Z,99590
2023-03-12T03:05:00.549Z,99590
2023-03-12T03:06:00.549Z,99590
2023-03-12T03:07:00.598Z,99590
2023-03-12T03:08:00.566Z,99600
2023-03-12T03:09:01.367Z,99600
2023-03-12T03:10:00.604Z,99600
2023-03-12T03:11:00.605Z,99600
2023-03-12T03:12:00.575Z,99600
2023-03-12T03:13:00.649Z,99600
2023-03-12T03:14:00.629Z,99600
2023-03-12T03:15:01.451Z,99600
2023-03-12T03:16:00.848Z,99600
2023-03-12T03:17:00.626Z,99600
2023-03-12T03:18:00.552Z,99600
2023-03-12T03:19:00.805Z,99600
2023-03-12T03:20:00.683Z,99610
2023-03-12T03:21:04.759Z,99610
2023-03-12T03:22:00.721Z,99610
2023-03-12T03:23:00.581Z,99600
2023-03-12T03:24:00.557Z,99610
2023-03-12T03:25:00.782Z,99600
2023-03-12T03:26:00.595Z,99610
2023-03-12T03:27:00.590Z,99610
2023-03-12T03:28:00.605Z,99610
2023-03-12T03:29:00.810Z,99620
2023-03-12T03:30:00.736Z,99610
2023-03-12T03:31:00.837Z,99610
2023-03-12T03:32:00.586Z,99620
2023-03-12T03:33:00.582Z,99620
2023-03-12T03:34:00.594Z,99620
2023-03-12T03:35:00.635Z,99620
2023-03-12T03:36:00.916Z,99620
2023-03-12T03:37:00.546Z,99620
2023-03-12T03:38:00.751Z,99630
2023-03-12T03:39:00.542Z,99630
2023-03-12T03:40:00.783Z,99630
2023-03-12T03:41:01.466Z,99630
2023-03-12T03:42:00.862Z,99630
2023-03-12T03:43:00.631Z,99630
2023-03-12T03:44:00.569Z,99630
2023-03-12T03:45:00.538Z,99630
2023-03-12T03:46:03.855Z,99630
2023-03-12T03:47:00.583Z,99630
2023-03-12T03:48:00.531Z,99630
2023-03-12T03:49:01.304Z,99630
2023-03-12T03:50:00.606Z,99640
2023-03-12T03:51:01.963Z,99630
2023-03-12T03:52:00.526Z,99640
2023-03-12T03:53:00.570Z,99640
2023-03-12T03:54:00.631Z,99630
2023-03-12T03:55:00.553Z,99640
2023-03-12T03:56:11.319Z,99630
2023-03-12T03:57:00.551Z,99640
2023-03-12T03:58:00.529Z,99630
2023-03-12T03:59:01.042Z,99640
2023-03-12T04:00:03.482Z,99640
2023-03-12T04:01:00.559Z,99630
2023-03-12T04:02:00.563Z,99640
2023-03-12T04:03:00.768Z,99640
2023-03-12T04:04:00.580Z,99640
2023-03-12T04:05:00.947Z,99640
2023-03-12T04:06:03.884Z,99640
2023-03-12T04:07:00.531Z,99640
2023-03-12T04:08:00.553Z,99640
2023-03-12T04:09:00.615Z,99640
2023-03-12T04:10:00.754Z,99640
2023-03-12T04:11:10.286Z,99640
2023-03-12T04:12:00.597Z,99640
2023-03-12T04:13:00.549Z,99640
2023-03-12T04:14:00.554Z,99640
2023-03-12T04:15:00.713Z,99640
2023-03-12T04:16:00.582Z,99640
2023-03-12T04:17:00.588Z,99640
2023-03-12T04:18:00.588Z,99650
2023-03-12T04:19:00.544Z,99650
2023-03-12T04:20:00.556Z,99650
2023-03-12T04:21:01.330Z,99650
2023-03-12T04:22:01.075Z,99650
2023-03-12T04:23:00.549Z,99650
2023-03-12T04:24:00.600Z,99650
2023-03-12T04:25:00.553Z,99650
2023-03-12T04:26:00.545Z,99660
2023-03-12T04:27:00.784Z,99660
2023-03-12T04:28:00.657Z,99660
2023-03-12T04:29:00.522Z,99660
2023-03-12T04:30:00.575Z,99660
2023-03-12T04:31:03.718Z,99660
2023-03-12T04:32:00.649Z,99660
2023-03-12T04:33:00.552Z,99660
2023-03-12T04:34:00.561Z,99660
2023-03-12T04:35:00.520Z,99660
2023-03-12T04:36:00.828Z,99660
2023-03-12T04:37:01.059Z,99660
2023-03-12T04:38:00.951Z,99660
2023-03-12T04:39:00.882Z,99660
2023-03-12T04:40:01.418Z,99660
2023-03-12T04:41:06.644Z,99670
2023-03-12T04:42:00.562Z,99670
2023-03-12T04:43:00.566Z,99670
2023-03-12T04:44:01.801Z,99670
2023-03-12T04:45:01.323Z,99670
2023-03-12T04:46:00.850Z,99670
2023-03-12T04:47:01.125Z,99670
2023-03-12T04:48:00.543Z,99670
2023-03-12T04:49:00.737Z,99670
2023-03-12T04:50:00.566Z,99670
2023-03-12T04:51:00.935Z,99670
2023-03-12T04:52:00.560Z,99670
2023-03-12T04:53:00.768Z,99680
2023-03-12T04:54:00.550Z,99680
2023-03-12T04:55:00.969Z,99680
2023-03-12T04:56:00.778Z,99680
2023-03-12T04:57:00.548Z,99680
2023-03-12T04:58:00.828Z,99680
2023-03-12T04:59:00.615Z,99690
2023-03-12T05:00:00.638Z,99690
2023-03-12T05:01:00.597Z,99680
2023-03-12T05:02:00.659Z,99680
2023-03-12T05:03:00.668Z,99680
2023-03-12T05:04:01.318Z,99680
2023-03-12T05:05:00.531Z,99680
2023-03-12T05:06:00.531Z,99680
2023-03-12T05:07:00.920Z,99680
2023-03-12T05:08:01.671Z,99690
2023-03-12T05:09:00.733Z,99690
2023-03-12T05:10:00.603Z,99690
2023-03-12T05:11:00.545Z,99700
2023-03-12T05:12:00.554Z,99690
2023-03-12T05:13:00.607Z,99700
2023-03-12T05:14:00.547Z,99700
2023-03-12T05:15:00.554Z,99700
2023-03-12T05:16:00.656Z,99700
2023-03-12T05:17:00.546Z,99700
2023-03-12T05:18:00.542Z,99700
2023-03-12T05:19:00.592Z,99700
2023-03-12T05:20:00.614Z,99700
2023-03-12T05:21:07.878Z,99700
2023-03-12T05:22:00.551Z,99700
2023-03-12T05:23:00.593Z,99700
2023-03-12T05:24:00.695Z,99700
2023-03-12T05:25:00.992Z,99700
2023-03-12T05:26:01.193Z,99710
2023-03-12T05:27:00.935Z,99700
2023-03-12T05:28:00.534Z,99710
2023-03-12T05:29:01.181Z,99700
2023-03-12T05:30:00.679Z,99700
2023-03-12T05:31:00.541Z,99700
2023-03-12T05:32:01.201Z,99700
2023-03-12T05:33:00.546Z,99700
2023-03-12T05:34:02.796Z,99710
2023-03-12T05:35:00.568Z,99700
2023-03-12T05:36:00.550Z,99710
2023-03-12T05:37:00.642Z,99710
2023-03-12T05:38:00.616Z,99700
2023-03-12T05:39:00.597Z,99700
2023-03-12T05:40:00.635Z,99710
2023-03-12T05:41:00.999Z,99710
2023-03-12T05:42:00.532Z,99710
2023-03-12T05:43:00.543Z,99710
2023-03-12T05:44:00.653Z,99710
2023-03-12T05:45:00.718Z,99710
2023-03-12T05:46:02.472Z,99710
2023-03-12T05:47:00.544Z,99710
2023-03-12T05:48:00.609Z,99710
2023-03-12T05:49:00.535Z,99710
2023-03-12T05:50:00.554Z,99710
2023-03-12T05:51:00.584Z,99710
2023-03-12T05:52:00.556Z,99710
2023-03-12T05:53:00.591Z,99720
2023-03-12T05:54:00.863Z,99710
2023-03-12T05:55:00.547Z,99710
2023-03-12T05:56:05.051Z,99710
2023-03-12T05:57:00.541Z,99710
2023-03-12T05:58:00.551Z,99720
2023-03-12T05:59:00.519Z,99720
2023-03-12T06:00:00.734Z,99710
2023-03-12T06:01:01.167Z,99730
2023-03-12T06:02:01.123Z,99720
2023-03-12T06:03:00.605Z,99720
2023-03-12T06:04:00.998Z,99720
2023-03-12T06:05:00.533Z,99730
2023-03-12T06:06:00.550Z,99730
2023-03-12T06:07:00.525Z,99730
2023-03-12T06:08:02.859Z,99730
2023-03-12T06:09:01.699Z,99730
2023-03-12T06:10:00.543Z,99730
2023-03-12T06:11:00.556Z,99740
2023-03-12T06:12:00.529Z,99730
2023-03-12T06:13:00.555Z,99730
2023-03-12T06:14:00.623Z,99740
2023-03-12T06:15:00.544Z,99740
2023-03-12T06:16:05.298Z,99740
2023-03-12T06:17:01.375Z,99740
2023-03-12T06:18:00.551Z,99740
2023-03-12T06:19:01.883Z,99750
2023-03-12T06:20:00.671Z,99750
2023-03-12T06:21:11.561Z,99750
2023-03-12T06:22:00.512Z,99750
2023-03-12T06:23:00.546Z,99750
2023-03-12T06:24:01.552Z,99750
2023-03-12T06:25:00.731Z,99760
2023-03-12T06:26:00.509Z,99760
2023-03-12T06:27:00.521Z,99760
2023-03-12T06:28:00.537Z,99760
2023-03-12T06:29:00.652Z,99760
2023-03-12T06:30:00.559Z,99760
2023-03-12T06:31:00.905Z,99760
2023-03-12T06:32:00.612Z,99760
2023-03-12T06:33:00.559Z,99760
2023-03-12T06:34:00.536Z,99760
2023-03-12T06:35:00.860Z,99760
2023-03-12T06:36:02.681Z,99760
2023-03-12T06:37:00.591Z,99760
2023-03-12T06:38:00.517Z,99760
2023-03-12T06:39:00.659Z,99760
2023-03-12T06:40:00.692Z,99750
2023-03-12T06:41:04.236Z,99750
2023-03-12T06:42:00.619Z,99750
2023-03-12T06:43:00.584Z,99750
2023-03-12T06:44:01.033Z,99750
2023-03-12T06:45:00.740Z,99760
2023-03-12T06:46:01.833Z,99760
2023-03-12T06:47:00.578Z,99760
2023-03-12T06:48:00.548Z,99770
2023-03-12T06:49:00.982Z,99760
2023-03-12T06:50:00.524Z,99770
2023-03-12T06:51:00.520Z,99770
2023-03-12T06:52:00.597Z,99770
2023-03-12T06:53:00.569Z,99770
2023-03-12T06:54:00.584Z,99770
2023-03-12T06:55:00.525Z,99780
2023-03-12T06:56:00.981Z,99770
2023-03-12T06:57:00.648Z,99780
2023-03-12T06:58:00.510Z,99780
2023-03-12T06:59:00.561Z,99780
2023-03-12T07:00:00.636Z,99780
2023-03-12T07:01:00.561Z,99780
2023-03-12T07:02:00.571Z,99780
2023-03-12T07:03:00.748Z,99780
2023-03-12T07:04:00.511Z,99780
2023-03-12T07:05:00.545Z,99780
2023-03-12T07:06:00.558Z,99780
2023-03-12T07:07:00.528Z,99780
2023-03-12T07:08:00.620Z,99790
2023-03-12T07:09:00.571Z,99790
2023-03-12T07:10:00.533Z,99790
2023-03-12T07:11:01.774Z,99790
2023-03-12T07:12:00.518Z,99790
2023-03-12T07:13:00.583Z,99790
2023-03-12T07:14:00.625Z,99800
2023-03-12T07:15:00.538Z,99800
2023-03-12T07:16:01.204Z,99790
2023-03-12T07:17:00.540Z,99800
2023-03-12T07:18:04.711Z,99810
2023-03-12T07:19:00.547Z,99800
2023-03-12T07:20:01.081Z,99800
2023-03-12T07:21:00.528Z,99800
2023-03-12T07:22:00.762Z,99810
2023-03-12T07:23:00.568Z,99810
2023-03-12T07:24:00.610Z,99810
2023-03-12T07:25:00.531Z,99800
2023-03-12T07:26:03.942Z,99810
2023-03-12T07:27:00.524Z,99810
2023-03-12T07:28:00.558Z,99810
2023-03-12T07:29:01.752Z,99810
2023-03-12T07:30:00.577Z,99810
2023-03-12T07:31:02.570Z,99820
2023-03-12T07:32:00.580Z,99820
2023-03-12T07:33:02.295Z,99820
2023-03-12T07:34:00.698Z,99820
2023-03-12T07:35:00.534Z,99820
2023-03-12T07:36:00.981Z,99820
2023-03-12T07:37:00.533Z,99820
2023-03-12T07:38:01.338Z,99820
2023-03-12T07:39:00.541Z,99830
2023-03-12T07:40:00.655Z,99830
2023-03-12T07:41:00.638Z,99830
2023-03-12T07:42:00.593Z,99830
2023-03-12T07:43:00.697Z,99830
2023-03-12T07:44:00.709Z,99830
2023-03-12T07:45:00.569Z,99830
2023-03-12T07:46:00.541Z,99830
2023-03-12T07:47:12.821Z,99830
2023-03-12T07:48:00.576Z,99830
2023-03-12T07:49:00.566Z,99840
2023-03-12T07:50:00.799Z,99830
2023-03-12T07:51:00.710Z,99840
2023-03-12T07:52:00.639Z,99830
2023-03-12T07:53:00.709Z,99830
2023-03-12T07:54:00.668Z,99840
2023-03-12T07:55:00.591Z,99830
2023-03-12T07:56:00.672Z,99840
2023-03-12T07:57:00.917Z,99840
2023-03-12T07:58:00.692Z,99830
2023-03-12T07:59:00.839Z,99830
2023-03-12T08:00:00.759Z,99830
2023-03-12T08:01:01.577Z,99840
2023-03-12T08:02:00.699Z,99840
2023-03-12T08:03:00.738Z,99840
2023-03-12T08:04:01.687Z,99830
2023-03-12T08:05:00.580Z,99830
2023-03-12T08:06:03.176Z,99840
2023-03-12T08:07:01.420Z,99830
2023-03-12T08:08:00.592Z,99830
2023-03-12T08:09:00.520Z,99830
2023-03-12T08:10:02.507Z,99830
2023-03-12T08:11:02.776Z,99840
2023-03-12T08:12:00.675Z,99840
2023-03-12T08:13:00.581Z,99840
2023-03-12T08:14:00.581Z,99840
2023-03-12T08:15:00.506Z,99840
2023-03-12T08:16:00.565Z,99840
2023-03-12T08:17:01.515Z,99840
2023-03-12T08:18:00.511Z,99840
2023-03-12T08:19:00.552Z,99840
2023-03-12T08:20:00.584Z,99840
2023-03-12T08:21:00.568Z,99840
2023-03-12T08:22:00.571Z,99840
2023-03-12T08:23:00.645Z,99840
2023-03-12T08:24:00.556Z,99850
2023-03-12T08:25:00.539Z,99850
2023-03-12T08:26:00.513Z,99830
2023-03-12T08:27:00.686Z,99840
2023-03-12T08:28:00.520Z,99840
2023-03-12T08:29:00.575Z,99840
2023-03-12T08:30:00.741Z,99850
2023-03-12T08:31:00.547Z,99840
2023-03-12T08:32:04.901Z,99850
2023-03-12T08:33:00.700Z,99840
2023-03-12T08:34:00.663Z,99850
2023-03-12T08:35:00.615Z,99840
2023-03-12T08:36:00.645Z,99850
2023-03-12T08:37:01.275Z,99840
2023-03-12T08:38:00.532Z,99840
2023-03-12T08:39:00.637Z,99840
2023-03-12T08:40:00.681Z,99850
2023-03-12T08:41:01.004Z,99850
2023-03-12T08:42:00.538Z,99850
2023-03-12T08:43:00.651Z,99850
2023-03-12T08:44:01.510Z,99850
2023-03-12T08:45:00.537Z,99850
2023-03-12T08:46:02.215Z,99850
2023-03-12T08:47:00.627Z,99850
2023-03-12T08:48:01.790Z,99850
2023-03-12T08:49:00.518Z,99850
2023-03-12T08:50:01.260Z,99850
2023-03-12T08:51:01.469Z,99850
2023-03-12T08:52:00.549Z,99850
2023-03-12T08:53:00.649Z,99860
2023-03-12T08:54:00.548Z,99850
2023-03-12T08:55:00.604Z,99850
2023-03-12T08:56:01.510Z,99850
2023-03-12T08:57:00.541Z,99850
2023-03-12T08:58:00.558Z,99850
2023-03-12T08:59:00.525Z,99850
2023-03-12T09:00:00.718Z,99860
2023-03-12T09:01:00.544Z,99850
2023-03-12T09:02:00.538Z,99850
2023-03-12T09:03:00.704Z,99850
2023-03-12T09:04:02.208Z,99850
2023-03-12T09:05:00.539Z,99850
2023-03-12T09:06:02.955Z,99850
2023-03-12T09:07:00.516Z,99850
2023-03-12T09:08:00.535Z,99850
2023-03-12T09:09:00.984Z,99850
2023-03-12T09:10:00.580Z,99850
2023-03-12T09:11:00.576Z,99850
2023-03-12T09:12:00.525Z,99860
2023-03-12T09:13:01.086Z,99860
2023-03-12T09:14:36.676Z,99850
2023-03-12T09:15:03.915Z,99850
2023-03-12T09:16:01.886Z,99850
2023-03-12T09:17:00.687Z,99850
2023-03-12T09:18:00.522Z,99860
2023-03-12T09:19:00.648Z,99850
2023-03-12T09:20:00.598Z,99860
2023-03-12T09:21:01.654Z,99850
2023-03-12T09:22:00.551Z,99850
2023-03-12T09:23:00.565Z,99860
2023-03-12T09:24:00.507Z,99860
2023-03-12T09:25:00.512Z,99860
2023-03-12T09:26:00.584Z,99860
2023-03-12T09:27:01.145Z,99860
2023-03-12T09:28:00.515Z,99860
2023-03-12T09:29:00.501Z,99860
2023-03-12T09:30:01.410Z,99860
2023-03-12T09:31:02.014Z,99850
2023-03-12T09:32:00.509Z,99860
2023-03-12T09:33:00.622Z,99850
2023-03-12T09:34:00.708Z,99860
2023-03-12T09:35:00.661Z,99860
2023-03-12T09:36:01.247Z,99860
2023-03-12T09:37:00.524Z,99860
2023-03-12T09:38:01.197Z,99860
2023-03-12T09:39:00.513Z,99860
2023-03-12T09:40:00.664Z,99860
2023-03-12T09:41:03.286Z,99860
2023-03-12T09:42:03.629Z,99860
2023-03-12T09:43:09.039Z,99860
2023-03-12T09:44:09.477Z,99860
2023-03-12T09:45:04.721Z,99850
2023-03-12T09:46:01.169Z,99850
2023-03-12T09:47:04.012Z,99860
2023-03-12T09:48:03.257Z,99860
2023-03-12T09:49:05.227Z,99860
2023-03-12T09:50:05.666Z,99860
2023-03-12T09:51:05.225Z,99860
2023-03-12T09:52:04.660Z,99860
2023-03-12T09:53:08.944Z,99860
2023-03-12T09:54:05.093Z,99860
2023-03-12T09:55:17.560Z,99860
2023-03-12T09:56:03.635Z,99860
2023-03-12T09:57:07.989Z,99870
2023-03-12T09:58:02.015Z,99860
2023-03-12T09:59:00.927Z,99860
2023-03-12T10:00:00.935Z,99860
2023-03-12T10:01:20.416Z,99860
2023-03-12T10:02:07.189Z,99860
2023-03-12T10:03:11.538Z,99860
2023-03-12T10:04:04.972Z,99850
2023-03-12T10:05:09.761Z,99850
2023-03-12T10:06:11.013Z,99850
2023-03-12T10:07:11.063Z,99850
2023-03-12T10:08:24.193Z,99850
2023-03-12T10:09:10.461Z,99850
2023-03-12T10:10:15.641Z,99850
2023-03-12T10:11:15.962Z,99840
2023-03-12T10:12:20.430Z,99830
2023-03-12T10:13:13.317Z,99840
2023-03-12T10:14:11.103Z,99850
2023-03-12T10:15:15.964Z,99840
2023-03-12T10:16:05.355Z,99840
2023-03-12T10:17:09.973Z,99850
2023-03-12T10:18:17.903Z,99850
2023-03-12T10:19:20.467Z,99840
2023-03-12T10:20:20.443Z,99850
2023-03-12T10:21:09.549Z,99840
2023-03-12T10:22:11.946Z,99840
2023-03-12T10:23:20.422Z,99850
2023-03-12T10:24:14.261Z,99850
2023-03-12T10:25:20.466Z,99850
2023-03-12T10:26:08.810Z,99850
2023-03-12T10:27:00.540Z,99850
2023-03-12T10:28:13.123Z,99850
2023-03-12T10:29:09.079Z,99850
2023-03-12T10:30:11.108Z,99850
2023-03-12T10:31:05.635Z,99850
2023-03-12T10:32:05.643Z,99840
2023-03-12T10:33:05.626Z,99850
2023-03-12T10:34:08.080Z,99860
2023-03-12T10:35:13.827Z,99850
2023-03-12T10:36:00.594Z,99850
2023-03-12T10:37:05.453Z,99860
2023-03-12T10:38:03.271Z,99860
2023-03-12T10:39:01.117Z,99860
2023-03-12T10:40:00.674Z,99850
2023-03-12T10:41:12.354Z,99850
2023-03-12T10:42:00.815Z,99860
2023-03-12T10:43:01.596Z,99860
2023-03-12T10:44:06.421Z,99850
2023-03-12T10:45:07.780Z,99860
2023-03-12T10:46:14.697Z,99850
2023-03-12T10:47:11.799Z,99860
2023-03-12T10:48:04.029Z,99860
2023-03-12T10:49:20.443Z,99860
2023-03-12T10:50:17.222Z,99860
2023-03-12T10:51:03.864Z,99850
2023-03-12T10:52:09.096Z,99850
2023-03-12T10:53:17.132Z,99860
2023-03-12T10:54:20.447Z,99860
2023-03-12T10:55:11.189Z,99860
2023-03-12T10:56:06.926Z,99850
2023-03-12T10:57:00.643Z,99860
2023-03-12T10:58:00.515Z,99850
2023-03-12T10:59:00.558Z,99850
2023-03-12T11:00:05.618Z,99850
2023-03-12T11:01:03.779Z,99850
2023-03-12T11:02:01.157Z,99840
2023-03-12T11:03:02.886Z,99850
2023-03-12T11:04:20.450Z,99840
2023-03-12T11:05:08.624Z,99840
2023-03-12T11:06:02.294Z,99840
2023-03-12T11:07:11.492Z,99850
2023-03-12T11:08:02.904Z,99840
2023-03-12T11:09:15.773Z,99840
2023-03-12T11:10:11.697Z,99840
2023-03-12T11:11:03.013Z,99840
2023-03-12T11:12:00.591Z,99840
2023-03-12T11:13:04.184Z,99840
2023-03-12T11:14:14.483Z,99830
2023-03-12T11:15:20.459Z,99840
2023-03-12T11:16:11.911Z,99840
2023-03-12T11:17:18.803Z,99830
2023-03-12T11:18:17.882Z,99840
2023-03-12T11:19:03.368Z,99840
2023-03-12T11:20:20.482Z,99840
2023-03-12T11:21:07.941Z,99840
2023-03-12T11:22:02.855Z,99840
2023-03-12T11:23:12.768Z,99840
2023-03-12T11:24:06.919Z,99840
2023-03-12T11:25:04.408Z,99840
2023-03-12T11:26:03.978Z,99840
2023-03-12T11:27:18.275Z,99840
2023-03-12T11:28:02.562Z,99830
2023-03-12T11:29:04.090Z,99830
2023-03-12T11:30:02.915Z,99830
2023-03-12T11:31:01.246Z,99820
2023-03-12T11:32:01.556Z,99830
2023-03-12T11:33:00.608Z,99820
2023-03-12T11:34:05.298Z,99820
2023-03-12T11:35:01.501Z,99830
2023-03-12T11:36:11.492Z,99820
2023-03-12T11:37:11.473Z,99820
2023-03-12T11:38:09.135Z,99820
2023-03-12T11:39:10.142Z,99820
2023-03-12T11:40:20.547Z,99820
2023-03-12T11:41:07.456Z,99820
2023-03-12T11:42:09.842Z,99820
2023-03-12T11:43:13.837Z,99820
2023-03-12T11:44:16.864Z,99820
2023-03-12T11:45:13.826Z,99820
2023-03-12T11:46:11.579Z,99820
2023-03-12T11:47:09.533Z,99810
2023-03-12T11:48:20.484Z,99810
2023-03-12T11:49:01.537Z,99810
2023-03-12T11:50:14.542Z,99800
2023-03-12T11:51:16.990Z,99800
2023-03-12T11:52:17.951Z,99800
2023-03-12T11:53:17.856Z,99810
2023-03-12T11:54:13.779Z,99800
2023-03-12T11:55:09.158Z,99800
2023-03-12T11:56:21.227Z,99800
2023-03-12T11:57:09.157Z,99800
2023-03-12T11:58:20.436Z,99800
2023-03-12T11:59:12.889Z,99800
2023-03-12T12:00:11.385Z,99810
2023-03-12T12:01:09.766Z,99810
2023-03-12T12:02:17.144Z,99810
2023-03-12T12:03:11.597Z,99810
2023-03-12T12:04:18.110Z,99810
2023-03-12T12:05:10.452Z,99800
2023-03-12T12:06:06.102Z,99800
2023-03-12T12:07:17.734Z,99800
2023-03-12T12:08:01.506Z,99800
2023-03-12T12:09:03.768Z,99800
2023-03-12T12:10:20.469Z,99810
2023-03-12T12:11:08.944Z,99810
2023-03-12T12:12:11.668Z,99800
2023-03-12T12:13:20.436Z,99800
2023-03-12T12:14:10.458Z,99800
2023-03-12T12:15:18.372Z,99800
2023-03-12T12:16:13.794Z,99800
2023-03-12T12:17:08.482Z,99800
2023-03-12T12:18:10.457Z,99800
2023-03-12T12:19:10.480Z,99800
2023-03-12T12:20:13.723Z,99800
2023-03-12T12:21:09.033Z,99790
2023-03-12T12:22:07.052Z,99800
2023-03-12T12:23:10.579Z,99800
2023-03-12T12:24:20.463Z,99800
2023-03-12T12:25:10.531Z,99800
2023-03-12T12:26:19.533Z,99800
2023-03-12T12:27:10.520Z,99800
2023-03-12T12:28:16.296Z,99800
2023-03-12T12:29:11.499Z,99790
2023-03-12T12:30:04.780Z,99800
2023-03-12T12:31:15.412Z,99800
2023-03-12T12:32:02.965Z,99800
2023-03-12T12:33:18.456Z,99790
2023-03-12T12:34:20.428Z,99790
2023-03-12T12:35:20.430Z,99790
2023-03-12T12:36:01.654Z,99790
2023-03-12T12:37:03.747Z,99790
2023-03-12T12:38:04.124Z,99790
2023-03-12T12:39:10.401Z,99790
2023-03-12T12:40:20.452Z,99790
2023-03-12T12:41:10.477Z,99780
2023-03-12T12:42:06.935Z,99790
2023-03-12T12:43:14.260Z,99790
2023-03-12T12:44:05.865Z,99790
2023-03-12T12:45:03.138Z,99790
2023-03-12T12:46:06.707Z,99790
2023-03-12T12:47:04.890Z,99790
2023-03-12T12:48:06.139Z,99790
2023-03-12T12:49:15.456Z,99790
2023-03-12T12:50:02.882Z,99780
2023-03-12T12:51:02.484Z,99780
2023-03-12T12:52:05.984Z,99780